sensor_id;sensor_type;location;lat;lon;timestamp;pressure;altitude;pressure_sealevel;temperature;humidity
74958;BME280;63741;42.624;26.276;2023-07-20T00:01:52;99167.56;;;27.41;47.50
74958;BME280;63741;42.624;26.276;2023-07-20T00:04:19;99170.78;;;27.38;47.43
74958;BME280;63741;42.624;26.276;2023-07-20T00:06:46;99166.63;;;27.47;47.05
74958;BME280;63741;42.624;26.276;2023-07-20T00:09:13;99156.47;;;27.42;47.34
74958;BME280;63741;42.624;26.276;2023-07-20T00:11:49;99152.97;;;27.07;48.16
74958;BME280;63741;42.624;26.276;2023-07-20T00:14:19;99156.75;;;27.29;47.87
74958;BME280;63741;42.624;26.276;2023-07-20T00:16:47;99158.94;;;27.44;48.19
74958;BME280;63741;42.624;26.276;2023-07-20T00:19:15;99200.53;;;26.98;48.80
74958;BME280;63741;42.624;26.276;2023-07-20T00:21:43;99271.97;;;27.10;48.36
74958;BME280;63741;42.624;26.276;2023-07-20T00:24:10;99320.16;;;27.50;47.27
74958;BME280;63741;42.624;26.276;2023-07-20T00:26:37;99339.19;;;27.38;47.54
74958;BME280;63741;42.624;26.276;2023-07-20T00:29:04;99331.97;;;27.20;48.07
74958;BME280;63741;42.624;26.276;2023-07-20T00:31:30;99320.63;;;27.35;48.11
74958;BME280;63741;42.624;26.276;2023-07-20T00:33:58;99293.53;;;26.93;48.19
74958;BME280;63741;42.624;26.276;2023-07-20T00:36:24;99296.34;;;26.86;48.70
74958;BME280;63741;42.624;26.276;2023-07-20T00:38:51;99282.91;;;26.91;48.80
74958;BME280;63741;42.624;26.276;2023-07-20T00:41:18;99264.94;;;26.67;48.74
74958;BME280;63741;42.624;26.276;2023-07-20T00:43:45;99257.53;;;26.98;47.26
74958;BME280;63741;42.624;26.276;2023-07-20T00:46:13;99223.22;;;27.38;45.79
74958;BME280;63741;42.624;26.276;2023-07-20T00:48:41;99226.28;;;27.94;44.06
74958;BME280;63741;42.624;26.276;2023-07-20T00:51:09;99194.81;;;28.27;43.43
74958;BME280;63741;42.624;26.276;2023-07-20T00:53:38;99211.75;;;28.45;43.35
74958;BME280;63741;42.624;26.276;2023-07-20T00:56:05;99199.31;;;28.50;43.32
74958;BME280;63741;42.624;26.276;2023-07-20T00:58:35;99181.41;;;28.37;42.16
74958;BME280;63741;42.624;26.276;2023-07-20T01:01:02;99174.06;;;28.37;42.19
74958;BME280;63741;42.624;26.276;2023-07-20T01:03:29;99162.81;;;28.34;42.33
74958;BME280;63741;42.624;26.276;2023-07-20T01:06:25;99161.00;;;28.23;43.07
74958;BME280;63741;42.624;26.276;2023-07-20T01:11:50;99150.63;;;27.74;43.33
74958;BME280;63741;42.624;26.276;2023-07-20T01:14:21;99131.69;;;27.67;42.29
74958;BME280;63741;42.624;26.276;2023-07-20T01:16:49;99136.56;;;27.94;41.87
74958;BME280;63741;42.624;26.276;2023-07-20T01:19:21;99149.19;;;28.17;40.79
74958;BME280;63741;42.624;26.276;2023-07-20T01:21:56;99153.00;;;28.16;40.26
74958;BME280;63741;42.624;26.276;2023-07-20T01:27:31;99157.56;;;28.44;38.98
74958;BME280;63741;42.624;26.276;2023-07-20T01:33:07;99146.50;;;28.34;38.81
74958;BME280;63741;42.624;26.276;2023-07-20T01:35:36;99152.13;;;28.27;38.93
74958;BME280;63741;42.624;26.276;2023-07-20T01:38:04;99143.22;;;28.32;38.12
74958;BME280;63741;42.624;26.276;2023-07-20T01:40:33;99130.84;;;28.24;39.04
74958;BME280;63741;42.624;26.276;2023-07-20T01:43:02;99121.38;;;28.27;37.42
74958;BME280;63741;42.624;26.276;2023-07-20T01:45:29;99113.97;;;28.39;38.98
74958;BME280;63741;42.624;26.276;2023-07-20T01:47:56;99089.38;;;28.67;39.20
74958;BME280;63741;42.624;26.276;2023-07-20T01:50:23;99079.59;;;28.88;37.50
74958;BME280;63741;42.624;26.276;2023-07-20T01:52:51;99072.22;;;28.67;37.82
74958;BME280;63741;42.624;26.276;2023-07-20T01:55:18;99054.09;;;28.56;38.13
74958;BME280;63741;42.624;26.276;2023-07-20T01:57:45;99028.81;;;28.77;38.06
74958;BME280;63741;42.624;26.276;2023-07-20T02:00:12;98983.25;;;28.67;37.47
74958;BME280;63741;42.624;26.276;2023-07-20T02:02:44;98937.78;;;28.68;37.95
74958;BME280;63741;42.624;26.276;2023-07-20T02:05:11;98938.13;;;28.71;37.64
74958;BME280;63741;42.624;26.276;2023-07-20T02:07:38;98955.66;;;28.59;37.13
74958;BME280;63741;42.624;26.276;2023-07-20T02:10:06;98953.78;;;28.26;38.14
74958;BME280;63741;42.624;26.276;2023-07-20T02:12:34;98955.63;;;28.20;37.73
74958;BME280;63741;42.624;26.276;2023-07-20T02:15:02;98966.78;;;28.18;38.08
74958;BME280;63741;42.624;26.276;2023-07-20T02:17:29;98964.50;;;28.32;38.27
74958;BME280;63741;42.624;26.276;2023-07-20T02:19:56;98968.66;;;28.18;38.35
74958;BME280;63741;42.624;26.276;2023-07-20T02:22:26;98979.22;;;28.14;38.85
74958;BME280;63741;42.624;26.276;2023-07-20T02:24:53;98981.25;;;28.24;38.00
74958;BME280;63741;42.624;26.276;2023-07-20T02:27:20;98973.97;;;28.30;39.41
74958;BME280;63741;42.624;26.276;2023-07-20T02:29:47;98966.66;;;28.30;38.42
74958;BME280;63741;42.624;26.276;2023-07-20T02:32:14;98980.66;;;28.39;38.29
74958;BME280;63741;42.624;26.276;2023-07-20T02:34:41;99001.28;;;28.35;39.44
74958;BME280;63741;42.624;26.276;2023-07-20T02:37:08;99005.00;;;28.12;40.29
74958;BME280;63741;42.624;26.276;2023-07-20T02:39:37;99012.47;;;27.71;40.83
74958;BME280;63741;42.624;26.276;2023-07-20T02:42:05;99016.25;;;27.70;40.71
74958;BME280;63741;42.624;26.276;2023-07-20T02:44:32;99013.44;;;27.65;40.58
74958;BME280;63741;42.624;26.276;2023-07-20T02:46:59;99023.38;;;27.42;41.11
74958;BME280;63741;42.624;26.276;2023-07-20T02:49:27;99024.94;;;27.38;41.52
74958;BME280;63741;42.624;26.276;2023-07-20T02:51:54;99026.66;;;27.44;41.24
74958;BME280;63741;42.624;26.276;2023-07-20T02:54:21;99027.38;;;27.40;41.25
74958;BME280;63741;42.624;26.276;2023-07-20T02:56:49;99028.72;;;27.54;41.30
74958;BME280;63741;42.624;26.276;2023-07-20T02:59:16;99045.16;;;27.59;41.48
74958;BME280;63741;42.624;26.276;2023-07-20T03:01:43;99039.75;;;27.48;41.68
74958;BME280;63741;42.624;26.276;2023-07-20T03:04:10;99050.53;;;27.42;42.44
74958;BME280;63741;42.624;26.276;2023-07-20T03:06:37;99054.34;;;27.41;41.65
74958;BME280;63741;42.624;26.276;2023-07-20T03:09:04;99066.09;;;27.47;42.04
74958;BME280;63741;42.624;26.276;2023-07-20T03:11:33;99071.66;;;27.40;42.74
74958;BME280;63741;42.624;26.276;2023-07-20T03:14:00;99079.81;;;27.40;43.14
74958;BME280;63741;42.624;26.276;2023-07-20T03:16:28;99081.91;;;27.10;43.05
74958;BME280;63741;42.624;26.276;2023-07-20T03:18:55;99067.09;;;26.89;44.54
74958;BME280;63741;42.624;26.276;2023-07-20T03:21:25;99063.66;;;26.93;43.76
74958;BME280;63741;42.624;26.276;2023-07-20T03:23:52;99070.84;;;27.11;43.42
74958;BME280;63741;42.624;26.276;2023-07-20T03:26:19;99066.47;;;26.87;44.96
74958;BME280;63741;42.624;26.276;2023-07-20T03:28:48;99080.28;;;27.09;44.30
74958;BME280;63741;42.624;26.276;2023-07-20T03:31:15;99081.53;;;27.18;45.07
74958;BME280;63741;42.624;26.276;2023-07-20T03:33:42;99085.91;;;27.19;45.03
74958;BME280;63741;42.624;26.276;2023-07-20T03:36:09;99088.34;;;26.68;46.92
74958;BME280;63741;42.624;26.276;2023-07-20T03:38:37;99079.22;;;26.86;45.98
74958;BME280;63741;42.624;26.276;2023-07-20T03:41:04;99074.63;;;27.10;45.27
74958;BME280;63741;42.624;26.276;2023-07-20T03:43:32;99077.28;;;27.22;45.03
74958;BME280;63741;42.624;26.276;2023-07-20T03:45:59;99086.59;;;27.26;45.03
74958;BME280;63741;42.624;26.276;2023-07-20T03:48:26;99097.16;;;27.11;45.70
74958;BME280;63741;42.624;26.276;2023-07-20T03:50:54;99099.47;;;27.19;44.84
74958;BME280;63741;42.624;26.276;2023-07-20T03:53:21;99110.25;;;26.90;45.73
74958;BME280;63741;42.624;26.276;2023-07-20T03:55:49;99109.56;;;26.60;46.62
74958;BME280;63741;42.624;26.276;2023-07-20T03:58:17;99113.06;;;26.95;45.58
74958;BME280;63741;42.624;26.276;2023-07-20T04:00:49;99114.97;;;26.95;46.18
74958;BME280;63741;42.624;26.276;2023-07-20T04:03:18;99117.81;;;26.88;46.55
74958;BME280;63741;42.624;26.276;2023-07-20T04:05:45;99114.63;;;26.56;47.37
74958;BME280;63741;42.624;26.276;2023-07-20T04:08:12;99113.00;;;26.67;47.02
74958;BME280;63741;42.624;26.276;2023-07-20T04:10:43;99119.59;;;26.71;47.04
74958;BME280;63741;42.624;26.276;2023-07-20T04:13:11;99125.91;;;26.41;48.25
74958;BME280;63741;42.624;26.276;2023-07-20T04:15:38;99121.00;;;26.50;47.93
74958;BME280;63741;42.624;26.276;2023-07-20T04:18:08;99119.94;;;26.86;47.17
74958;BME280;63741;42.624;26.276;2023-07-20T04:20:35;99119.13;;;26.98;46.88
74958;BME280;63741;42.624;26.276;2023-07-20T04:23:02;99121.72;;;27.16;46.16
74958;BME280;63741;42.624;26.276;2023-07-20T04:25:29;99127.47;;;27.08;47.16
74958;BME280;63741;42.624;26.276;2023-07-20T04:28:00;99124.66;;;26.91;47.74
74958;BME280;63741;42.624;26.276;2023-07-20T04:30:27;99118.16;;;27.15;47.12
74958;BME280;63741;42.624;26.276;2023-07-20T04:32:54;99115.66;;;27.14;47.38
74958;BME280;63741;42.624;26.276;2023-07-20T04:35:51;99116.03;;;27.58;47.15
74958;BME280;63741;42.624;26.276;2023-07-20T04:38:27;99112.72;;;27.56;46.44
74958;BME280;63741;42.624;26.276;2023-07-20T04:41:03;99123.22;;;27.64;46.42
74958;BME280;63741;42.624;26.276;2023-07-20T04:43:34;99123.31;;;27.69;46.62
74958;BME280;63741;42.624;26.276;2023-07-20T04:46:01;99130.81;;;27.50;47.02
74958;BME280;63741;42.624;26.276;2023-07-20T04:48:30;99127.97;;;27.57;46.52
74958;BME280;63741;42.624;26.276;2023-07-20T04:50:57;99128.03;;;27.74;46.83
74958;BME280;63741;42.624;26.276;2023-07-20T04:53:24;99127.50;;;27.88;45.87
74958;BME280;63741;42.624;26.276;2023-07-20T04:55:52;99125.34;;;27.90;45.39
74958;BME280;63741;42.624;26.276;2023-07-20T04:58:23;99129.91;;;28.02;45.05
74958;BME280;63741;42.624;26.276;2023-07-20T05:00:51;99122.75;;;27.95;45.60
74958;BME280;63741;42.624;26.276;2023-07-20T05:03:19;99123.91;;;28.00;45.27
74958;BME280;63741;42.624;26.276;2023-07-20T05:05:47;99130.75;;;28.19;45.66
74958;BME280;63741;42.624;26.276;2023-07-20T05:08:16;99137.50;;;28.16;45.03
74958;BME280;63741;42.624;26.276;2023-07-20T05:10:43;99138.09;;;28.18;45.06
74958;BME280;63741;42.624;26.276;2023-07-20T05:13:10;99126.22;;;28.25;44.55
74958;BME280;63741;42.624;26.276;2023-07-20T05:15:37;99131.13;;;27.94;45.53
74958;BME280;63741;42.624;26.276;2023-07-20T05:18:09;99130.19;;;28.34;43.89
74958;BME280;63741;42.624;26.276;2023-07-20T05:20:36;99131.84;;;28.52;44.38
74958;BME280;63741;42.624;26.276;2023-07-20T05:23:04;99126.94;;;28.49;43.98
74958;BME280;63741;42.624;26.276;2023-07-20T05:25:31;99136.88;;;28.60;44.04
74958;BME280;63741;42.624;26.276;2023-07-20T05:27:58;99124.34;;;28.76;43.86
74958;BME280;63741;42.624;26.276;2023-07-20T05:30:25;99128.59;;;28.88;43.35
74958;BME280;63741;42.624;26.276;2023-07-20T05:32:51;99123.66;;;29.02;42.39
74958;BME280;63741;42.624;26.276;2023-07-20T05:35:20;99117.88;;;28.99;43.17
74958;BME280;63741;42.624;26.276;2023-07-20T05:37:47;99112.44;;;28.99;43.47
74958;BME280;63741;42.624;26.276;2023-07-20T05:40:14;99119.03;;;29.03;43.89
74958;BME280;63741;42.624;26.276;2023-07-20T05:42:46;99121.44;;;29.21;41.96
74958;BME280;63741;42.624;26.276;2023-07-20T05:45:14;99116.44;;;29.13;41.99
74958;BME280;63741;42.624;26.276;2023-07-20T05:47:42;99113.13;;;29.11;42.37
74958;BME280;63741;42.624;26.276;2023-07-20T05:50:10;99103.19;;;29.00;42.29
74958;BME280;63741;42.624;26.276;2023-07-20T05:52:37;99097.09;;;29.14;41.14
74958;BME280;63741;42.624;26.276;2023-07-20T05:55:06;99108.13;;;29.46;41.82
74958;BME280;63741;42.624;26.276;2023-07-20T05:57:33;99100.84;;;29.30;41.19
74958;BME280;63741;42.624;26.276;2023-07-20T06:00:00;99097.97;;;29.42;40.46
74958;BME280;63741;42.624;26.276;2023-07-20T06:02:37;99097.81;;;29.49;40.79
74958;BME280;63741;42.624;26.276;2023-07-20T06:05:06;99099.69;;;29.48;41.52
74958;BME280;63741;42.624;26.276;2023-07-20T06:07:36;99096.16;;;29.48;39.76
74958;BME280;63741;42.624;26.276;2023-07-20T06:10:04;99088.22;;;29.46;40.21
74958;BME280;63741;42.624;26.276;2023-07-20T06:12:32;99089.56;;;29.65;40.80
74958;BME280;63741;42.624;26.276;2023-07-20T06:15:27;99090.56;;;29.59;38.65
74958;BME280;63741;42.624;26.276;2023-07-20T06:17:55;99084.66;;;29.94;38.96
74958;BME280;63741;42.624;26.276;2023-07-20T06:20:23;99091.28;;;30.04;39.37
74958;BME280;63741;42.624;26.276;2023-07-20T06:22:50;99085.59;;;30.05;39.48
74958;BME280;63741;42.624;26.276;2023-07-20T06:25:17;99081.91;;;30.21;38.23
74958;BME280;63741;42.624;26.276;2023-07-20T06:27:44;99071.97;;;30.10;38.71
74958;BME280;63741;42.624;26.276;2023-07-20T06:30:11;99063.31;;;30.51;37.85
74958;BME280;63741;42.624;26.276;2023-07-20T06:32:39;99065.78;;;30.57;38.45
74958;BME280;63741;42.624;26.276;2023-07-20T06:35:06;99062.09;;;30.74;37.75
74958;BME280;63741;42.624;26.276;2023-07-20T06:37:33;99059.84;;;30.65;37.52
74958;BME280;63741;42.624;26.276;2023-07-20T06:40:02;99055.84;;;30.78;37.10
74958;BME280;63741;42.624;26.276;2023-07-20T06:42:33;99061.38;;;30.93;36.89
74958;BME280;63741;42.624;26.276;2023-07-20T06:45:03;99057.78;;;30.83;37.70
74958;BME280;63741;42.624;26.276;2023-07-20T06:47:30;99048.00;;;30.92;37.65
74958;BME280;63741;42.624;26.276;2023-07-20T06:49:57;99053.72;;;30.85;37.96
74958;BME280;63741;42.624;26.276;2023-07-20T06:52:24;99047.78;;;31.04;36.52
74958;BME280;63741;42.624;26.276;2023-07-20T06:54:51;99054.84;;;30.94;38.12
74958;BME280;63741;42.624;26.276;2023-07-20T06:57:18;99051.38;;;31.25;37.13
74958;BME280;63741;42.624;26.276;2023-07-20T06:59:45;99062.13;;;31.41;36.10
74958;BME280;63741;42.624;26.276;2023-07-20T07:02:13;99051.22;;;31.52;36.38
74958;BME280;63741;42.624;26.276;2023-07-20T07:04:41;99053.94;;;31.52;36.81
74958;BME280;63741;42.624;26.276;2023-07-20T07:07:09;99047.97;;;31.70;36.04
74958;BME280;63741;42.624;26.276;2023-07-20T07:09:36;99054.59;;;31.94;35.75
74958;BME280;63741;42.624;26.276;2023-07-20T07:12:04;99051.31;;;32.03;35.57
74958;BME280;63741;42.624;26.276;2023-07-20T07:14:31;99051.31;;;31.92;36.36
74958;BME280;63741;42.624;26.276;2023-07-20T07:16:59;99056.25;;;32.11;35.56
74958;BME280;63741;42.624;26.276;2023-07-20T07:19:30;99054.88;;;32.03;35.82
74958;BME280;63741;42.624;26.276;2023-07-20T07:21:57;99063.28;;;31.76;36.22
74958;BME280;63741;42.624;26.276;2023-07-20T07:24:26;99052.13;;;31.98;35.72
74958;BME280;63741;42.624;26.276;2023-07-20T07:26:55;99053.75;;;32.45;36.08
74958;BME280;63741;42.624;26.276;2023-07-20T07:29:22;99057.00;;;32.62;35.17
74958;BME280;63741;42.624;26.276;2023-07-20T07:31:49;99047.63;;;32.89;35.46
74958;BME280;63741;42.624;26.276;2023-07-20T07:34:16;99046.75;;;33.04;34.66
74958;BME280;63741;42.624;26.276;2023-07-20T07:36:43;99052.25;;;33.09;35.42
74958;BME280;63741;42.624;26.276;2023-07-20T07:39:10;99058.78;;;33.18;34.06
74958;BME280;63741;42.624;26.276;2023-07-20T07:41:40;99050.06;;;32.90;33.38
74958;BME280;63741;42.624;26.276;2023-07-20T07:44:07;99058.28;;;33.06;31.72
74958;BME280;63741;42.624;26.276;2023-07-20T07:46:34;99045.09;;;33.08;29.30
74958;BME280;63741;42.624;26.276;2023-07-20T07:49:01;99053.88;;;33.10;30.59
74958;BME280;63741;42.624;26.276;2023-07-20T07:51:28;99056.88;;;33.13;30.98
74958;BME280;63741;42.624;26.276;2023-07-20T07:53:55;99050.53;;;33.23;30.69
74958;BME280;63741;42.624;26.276;2023-07-20T07:56:22;99058.78;;;33.08;30.47
74958;BME280;63741;42.624;26.276;2023-07-20T07:58:50;99051.66;;;33.12;30.72
74958;BME280;63741;42.624;26.276;2023-07-20T08:01:20;99042.78;;;33.30;29.99
74958;BME280;63741;42.624;26.276;2023-07-20T08:03:47;99037.34;;;33.25;30.15
74958;BME280;63741;42.624;26.276;2023-07-20T08:06:14;99047.13;;;33.41;29.26
74958;BME280;63741;42.624;26.276;2023-07-20T08:08:41;99049.97;;;33.21;30.33
74958;BME280;63741;42.624;26.276;2023-07-20T08:11:12;99057.53;;;33.50;30.00
74958;BME280;63741;42.624;26.276;2023-07-20T08:13:41;99050.53;;;33.23;29.93
74958;BME280;63741;42.624;26.276;2023-07-20T08:16:08;99042.56;;;33.21;30.01
74958;BME280;63741;42.624;26.276;2023-07-20T08:18:35;99046.34;;;33.31;29.38
74958;BME280;63741;42.624;26.276;2023-07-20T08:21:02;99052.31;;;33.48;29.97
74958;BME280;63741;42.624;26.276;2023-07-20T08:23:29;99050.94;;;33.51;29.42
74958;BME280;63741;42.624;26.276;2023-07-20T08:25:56;99046.41;;;33.70;29.12
74958;BME280;63741;42.624;26.276;2023-07-20T08:28:23;99050.69;;;33.86;28.78
74958;BME280;63741;42.624;26.276;2023-07-20T08:30:50;99049.94;;;34.15;29.50
74958;BME280;63741;42.624;26.276;2023-07-20T08:33:18;99038.06;;;34.25;29.40
74958;BME280;63741;42.624;26.276;2023-07-20T08:35:48;99039.44;;;34.22;28.29
74958;BME280;63741;42.624;26.276;2023-07-20T08:38:15;99039.09;;;34.29;28.08
74958;BME280;63741;42.624;26.276;2023-07-20T08:40:44;99053.78;;;34.43;28.93
74958;BME280;63741;42.624;26.276;2023-07-20T08:43:12;99049.38;;;34.42;29.59
74958;BME280;63741;42.624;26.276;2023-07-20T08:45:40;99038.94;;;34.15;28.67
74958;BME280;63741;42.624;26.276;2023-07-20T08:48:07;99038.00;;;34.30;29.69
74958;BME280;63741;42.624;26.276;2023-07-20T08:50:35;99037.31;;;34.43;29.25
74958;BME280;63741;42.624;26.276;2023-07-20T08:53:02;99032.34;;;34.74;28.65
74958;BME280;63741;42.624;26.276;2023-07-20T08:55:30;99041.41;;;34.75;28.16
74958;BME280;63741;42.624;26.276;2023-07-20T08:57:59;99039.72;;;34.79;29.17
74958;BME280;63741;42.624;26.276;2023-07-20T09:00:27;99035.25;;;34.83;28.62
74958;BME280;63741;42.624;26.276;2023-07-20T09:02:57;99046.81;;;34.56;27.98
74958;BME280;63741;42.624;26.276;2023-07-20T09:05:24;99040.69;;;34.88;28.06
74958;BME280;63741;42.624;26.276;2023-07-20T09:07:53;99036.41;;;34.53;28.38
74958;BME280;63741;42.624;26.276;2023-07-20T09:10:21;99038.88;;;34.54;29.34
74958;BME280;63741;42.624;26.276;2023-07-20T09:12:48;99021.38;;;34.93;27.91
74958;BME280;63741;42.624;26.276;2023-07-20T09:15:16;99031.47;;;35.03;28.32
74958;BME280;63741;42.624;26.276;2023-07-20T09:17:48;99032.66;;;34.91;28.08
74958;BME280;63741;42.624;26.276;2023-07-20T09:20:17;99027.97;;;34.97;28.12
74958;BME280;63741;42.624;26.276;2023-07-20T09:22:50;99019.88;;;35.06;27.49
74958;BME280;63741;42.624;26.276;2023-07-20T09:25:19;99016.84;;;35.26;27.46
74958;BME280;63741;42.624;26.276;2023-07-20T09:27:49;99017.88;;;35.11;27.72
74958;BME280;63741;42.624;26.276;2023-07-20T09:30:18;99007.19;;;35.29;27.07
74958;BME280;63741;42.624;26.276;2023-07-20T09:32:47;99005.03;;;35.44;28.72
74958;BME280;63741;42.624;26.276;2023-07-20T09:35:21;99001.63;;;35.34;26.95
74958;BME280;63741;42.624;26.276;2023-07-20T09:37:54;99004.44;;;35.29;27.67
74958;BME280;63741;42.624;26.276;2023-07-20T09:40:25;98991.34;;;35.39;27.52
74958;BME280;63741;42.624;26.276;2023-07-20T09:43:15;98998.97;;;35.48;26.45
74958;BME280;63741;42.624;26.276;2023-07-20T09:45:45;99000.72;;;35.57;27.06
74958;BME280;63741;42.624;26.276;2023-07-20T09:48:15;98997.94;;;35.76;26.04
74958;BME280;63741;42.624;26.276;2023-07-20T09:50:49;98987.03;;;35.71;27.04
74958;BME280;63741;42.624;26.276;2023-07-20T09:53:18;98997.94;;;35.95;26.77
74958;BME280;63741;42.624;26.276;2023-07-20T09:55:48;98987.66;;;35.68;26.23
74958;BME280;63741;42.624;26.276;2023-07-20T09:58:16;98987.69;;;36.14;26.85
74958;BME280;63741;42.624;26.276;2023-07-20T10:00:45;98984.44;;;36.12;26.32
74958;BME280;63741;42.624;26.276;2023-07-20T10:03:19;98983.59;;;36.12;26.32
74958;BME280;63741;42.624;26.276;2023-07-20T10:05:52;98986.97;;;36.09;25.97
74958;BME280;63741;42.624;26.276;2023-07-20T10:08:20;98978.00;;;36.03;26.00
74958;BME280;63741;42.624;26.276;2023-07-20T10:10:51;98972.31;;;36.27;26.39
74958;BME280;63741;42.624;26.276;2023-07-20T10:13:24;98965.63;;;36.47;26.39
74958;BME280;63741;42.624;26.276;2023-07-20T10:16:03;98947.63;;;36.36;25.76
74958;BME280;63741;42.624;26.276;2023-07-20T10:21:29;98913.78;;;36.08;26.49
74958;BME280;63741;42.624;26.276;2023-07-20T10:23:59;98914.16;;;36.42;26.66
74958;BME280;63741;42.624;26.276;2023-07-20T10:26:27;98927.31;;;36.04;26.16
74958;BME280;63741;42.624;26.276;2023-07-20T10:28:56;98934.16;;;36.20;25.10
74958;BME280;63741;42.624;26.276;2023-07-20T10:31:24;98937.66;;;36.54;26.52
74958;BME280;63741;42.624;26.276;2023-07-20T10:33:51;98943.16;;;36.40;25.24
74958;BME280;63741;42.624;26.276;2023-07-20T10:36:25;98942.25;;;36.72;25.74
74958;BME280;63741;42.624;26.276;2023-07-20T10:38:58;98937.97;;;36.66;25.65
74958;BME280;63741;42.624;26.276;2023-07-20T10:41:29;98923.56;;;36.55;25.37
74958;BME280;63741;42.624;26.276;2023-07-20T10:44:04;98910.22;;;36.35;25.67
74958;BME280;63741;42.624;26.276;2023-07-20T10:46:43;98918.66;;;36.25;25.90
74958;BME280;63741;42.624;26.276;2023-07-20T10:49:14;98914.38;;;36.60;26.41
74958;BME280;63741;42.624;26.276;2023-07-20T10:51:44;98920.09;;;37.13;26.14
74958;BME280;63741;42.624;26.276;2023-07-20T10:56:46;98915.41;;;37.36;24.90
74958;BME280;63741;42.624;26.276;2023-07-20T11:01:55;98911.94;;;38.29;26.40
74958;BME280;63741;42.624;26.276;2023-07-20T11:04:43;98903.91;;;38.10;24.38
74958;BME280;63741;42.624;26.276;2023-07-20T11:07:21;98902.16;;;38.23;24.57
74958;BME280;63741;42.624;26.276;2023-07-20T11:10:13;98890.72;;;38.07;24.06
74958;BME280;63741;42.624;26.276;2023-07-20T11:13:16;98878.78;;;37.89;25.20
74958;BME280;63741;42.624;26.276;2023-07-20T11:18:25;98900.69;;;38.26;24.51
74958;BME280;63741;42.624;26.276;2023-07-20T11:20:53;98883.38;;;38.34;23.72
74958;BME280;63741;42.624;26.276;2023-07-20T11:23:20;98884.03;;;38.39;23.79
74958;BME280;63741;42.624;26.276;2023-07-20T11:25:48;98883.59;;;38.63;24.18
74958;BME280;63741;42.624;26.276;2023-07-20T11:28:16;98880.06;;;38.98;23.43
74958;BME280;63741;42.624;26.276;2023-07-20T11:30:43;98870.31;;;38.83;24.00
74958;BME280;63741;42.624;26.276;2023-07-20T11:33:10;98873.09;;;38.91;23.55
74958;BME280;63741;42.624;26.276;2023-07-20T11:35:44;98881.06;;;39.10;24.16
74958;BME280;63741;42.624;26.276;2023-07-20T11:38:14;98879.63;;;39.22;24.04
74958;BME280;63741;42.624;26.276;2023-07-20T11:40:45;98884.81;;;39.23;23.57
74958;BME280;63741;42.624;26.276;2023-07-20T11:43:13;98876.34;;;39.37;23.78
74958;BME280;63741;42.624;26.276;2023-07-20T11:45:44;98864.63;;;39.23;23.46
74958;BME280;63741;42.624;26.276;2023-07-20T11:48:15;98854.34;;;39.49;23.45
74958;BME280;63741;42.624;26.276;2023-07-20T11:50:43;98863.31;;;39.37;23.42
74958;BME280;63741;42.624;26.276;2023-07-20T11:53:10;98864.97;;;39.38;23.02
74958;BME280;63741;42.624;26.276;2023-07-20T11:55:40;98855.50;;;39.39;22.95
74958;BME280;63741;42.624;26.276;2023-07-20T11:58:09;98858.88;;;39.71;23.57
74958;BME280;63741;42.624;26.276;2023-07-20T12:00:38;98858.72;;;39.67;23.39
74958;BME280;63741;42.624;26.276;2023-07-20T12:03:06;98853.59;;;39.87;22.71
74958;BME280;63741;42.624;26.276;2023-07-20T12:05:34;98853.69;;;39.70;23.21
74958;BME280;63741;42.624;26.276;2023-07-20T12:08:21;98850.41;;;39.59;23.18
74958;BME280;63741;42.624;26.276;2023-07-20T12:10:48;98858.63;;;39.29;23.00
74958;BME280;63741;42.624;26.276;2023-07-20T12:13:16;98858.72;;;39.59;22.66
74958;BME280;63741;42.624;26.276;2023-07-20T12:15:43;98858.72;;;39.59;22.94
74958;BME280;63741;42.624;26.276;2023-07-20T12:18:10;98853.53;;;39.49;22.45
74958;BME280;63741;42.624;26.276;2023-07-20T12:20:38;98848.34;;;39.47;22.68
74958;BME280;63741;42.624;26.276;2023-07-20T12:23:09;98844.69;;;39.64;22.90
74958;BME280;63741;42.624;26.276;2023-07-20T12:25:40;98848.44;;;39.59;22.83
74958;BME280;63741;42.624;26.276;2023-07-20T12:28:12;98842.31;;;39.45;22.68
74958;BME280;63741;42.624;26.276;2023-07-20T12:30:41;98844.41;;;39.65;22.76
74958;BME280;63741;42.624;26.276;2023-07-20T12:33:08;98850.59;;;39.45;22.67
74958;BME280;63741;42.624;26.276;2023-07-20T12:35:35;98840.84;;;39.48;23.38
74958;BME280;63741;42.624;26.276;2023-07-20T12:38:03;98836.97;;;39.05;23.45
74958;BME280;63741;42.624;26.276;2023-07-20T12:40:30;98828.13;;;39.38;23.69
74958;BME280;63741;42.624;26.276;2023-07-20T12:42:57;98830.25;;;39.41;23.97
74958;BME280;63741;42.624;26.276;2023-07-20T12:45:24;98836.31;;;39.26;24.00
74958;BME280;63741;42.624;26.276;2023-07-20T12:47:51;98832.25;;;39.23;23.95
74958;BME280;63741;42.624;26.276;2023-07-20T12:50:18;98817.78;;;39.26;24.11
74958;BME280;63741;42.624;26.276;2023-07-20T12:52:45;98824.84;;;39.71;24.03
74958;BME280;63741;42.624;26.276;2023-07-20T12:55:12;98831.03;;;39.59;23.25
74958;BME280;63741;42.624;26.276;2023-07-20T12:57:40;98825.19;;;39.52;24.23
74958;BME280;63741;42.624;26.276;2023-07-20T13:00:09;98823.31;;;39.26;24.25
74958;BME280;63741;42.624;26.276;2023-07-20T13:02:37;98823.38;;;39.56;24.19
74958;BME280;63741;42.624;26.276;2023-07-20T13:05:05;98824.22;;;39.65;24.46
74958;BME280;63741;42.624;26.276;2023-07-20T13:07:33;98836.75;;;39.54;24.68
74958;BME280;63741;42.624;26.276;2023-07-20T13:10:04;98823.75;;;39.19;25.08
74958;BME280;63741;42.624;26.276;2023-07-20T13:12:33;98824.13;;;39.01;24.80
74958;BME280;63741;42.624;26.276;2023-07-20T13:15:01;98823.09;;;38.62;25.77
74958;BME280;63741;42.624;26.276;2023-07-20T13:17:29;98830.72;;;38.48;25.95
74958;BME280;63741;42.624;26.276;2023-07-20T13:19:56;98830.50;;;38.18;26.38